createdAt,value
2023-04-21T00:01:34.907Z,70.13
2023-04-21T00:04:02.843Z,70.08
2023-04-21T00:06:31.443Z,70.19
2023-04-21T00:08:59.274Z,70.33
2023-04-21T00:11:27.019Z,70.56
2023-04-21T00:13:55.796Z,71.04
2023-04-21T00:16:23.614Z,71.07
2023-04-21T00:18:51.282Z,70.91
2023-04-21T00:21:18.905Z,71.23
2023-04-21T00:23:47.491Z,71.31
2023-04-21T00:26:15.220Z,71.39
2023-04-21T00:28:42.914Z,71.50
2023-04-21T00:31:11.068Z,71.68
2023-04-21T00:33:39.257Z,71.71
2023-04-21T00:36:07.195Z,72.15
2023-04-21T00:38:34.827Z,72.34
2023-04-21T00:41:02.744Z,72.34
2023-04-21T00:43:30.498Z,72.44
2023-04-21T00:45:58.182Z,72.71
2023-04-21T00:48:25.856Z,72.59
2023-04-21T00:50:53.757Z,72.83
2023-04-21T00:53:22.471Z,72.68
2023-04-21T00:55:50.940Z,72.70
2023-04-21T00:58:18.700Z,72.84
2023-04-21T01:00:46.429Z,72.91
2023-04-21T01:03:14.437Z,72.98
2023-04-21T01:05:42.614Z,73.02
2023-04-21T01:08:10.825Z,73.07
2023-04-21T01:10:38.560Z,72.93
2023-04-21T01:13:06.313Z,72.95
2023-04-21T01:15:33.992Z,73.01
2023-04-21T01:18:02.162Z,73.03
2023-04-21T01:20:31.052Z,73.22
2023-04-21T01:22:59.118Z,73.67
2023-04-21T01:25:28.628Z,73.61
2023-04-21T01:27:56.380Z,73.69
2023-04-21T01:30:24.157Z,73.89
2023-04-21T01:32:51.953Z,73.83
2023-04-21T01:35:20.100Z,73.91
2023-04-21T01:37:47.857Z,73.79
2023-04-21T01:40:15.740Z,73.96
2023-04-21T01:42:43.682Z,74.31
2023-04-21T01:45:12.383Z,74.14
2023-04-21T01:47:40.224Z,74.24
2023-04-21T01:50:09.859Z,74.35
2023-04-21T01:52:38.415Z,74.91
2023-04-21T01:55:06.786Z,74.60
2023-04-21T01:57:34.537Z,74.84
2023-04-21T02:00:04.048Z,75.16
2023-04-21T02:02:31.927Z,74.89
2023-04-21T02:04:59.898Z,74.98
2023-04-21T02:07:27.678Z,75.12
2023-04-21T02:09:55.417Z,75.32
2023-04-21T02:12:23.192Z,75.20
2023-04-21T02:14:51.152Z,75.25
2023-04-21T02:17:18.891Z,75.39
2023-04-21T02:19:47.918Z,75.36
2023-04-21T02:22:15.772Z,75.28
2023-04-21T02:24:43.529Z,75.25
2023-04-21T02:27:11.200Z,75.26
2023-04-21T02:29:38.844Z,75.39
2023-04-21T02:34:38.496Z,75.26
2023-04-21T02:37:06.652Z,75.27
2023-04-21T02:39:34.412Z,75.28
2023-04-21T02:42:02.285Z,75.23
2023-04-21T02:44:29.956Z,75.28
2023-04-21T02:46:57.883Z,75.47
2023-04-21T02:49:25.711Z,75.44
2023-04-21T02:51:55.177Z,75.40
2023-04-21T02:54:22.933Z,75.60
2023-04-21T02:56:50.703Z,75.65
2023-04-21T02:59:18.798Z,75.67
2023-04-21T03:01:49.312Z,75.66
2023-04-21T03:04:17.912Z,75.64
2023-04-21T03:06:46.056Z,75.68
2023-04-21T03:09:13.812Z,76.06
2023-04-21T03:11:41.525Z,76.22
2023-04-21T03:14:09.335Z,76.61
2023-04-21T03:16:37.051Z,76.49
2023-04-21T03:19:04.761Z,76.57
2023-04-21T03:21:32.526Z,76.70
2023-04-21T03:24:00.286Z,76.52
2023-04-21T03:26:28.067Z,76.30
2023-04-21T03:28:55.741Z,76.36
2023-04-21T03:31:23.529Z,76.20
2023-04-21T03:33:51.325Z,76.43
2023-04-21T03:36:18.997Z,76.61
2023-04-21T03:38:46.692Z,76.84
2023-04-21T03:41:14.435Z,76.95
2023-04-21T03:43:42.199Z,77.06
2023-04-21T03:46:20.875Z,77.06
2023-04-21T03:48:48.947Z,77.16
2023-04-21T03:51:16.856Z,77.15
2023-04-21T03:53:44.766Z,77.04
2023-04-21T03:56:12.506Z,77.28
2023-04-21T03:58:40.249Z,77.24
2023-04-21T04:01:08.078Z,77.59
2023-04-21T04:03:36.572Z,77.82
2023-04-21T04:06:04.975Z,78.06
2023-04-21T04:08:32.730Z,77.93
2023-04-21T04:11:00.497Z,77.92
2023-04-21T04:13:29.591Z,78.01
2023-04-21T04:15:58.127Z,77.95
2023-04-21T04:18:25.983Z,78.02
2023-04-21T04:20:53.677Z,78.29
2023-04-21T04:23:21.985Z,78.32
2023-04-21T04:25:49.736Z,78.64
2023-04-21T04:28:17.478Z,78.64
2023-04-21T04:30:45.618Z,78.87
2023-04-21T04:33:13.305Z,79.02
2023-04-21T04:35:41.092Z,78.95
2023-04-21T04:38:08.854Z,79.14
2023-04-21T04:40:36.560Z,79.05
2023-04-21T04:43:04.256Z,78.84
2023-04-21T04:45:33.186Z,77.72
2023-04-21T04:48:01.296Z,76.52
2023-04-21T04:50:29.037Z,75.04
2023-04-21T04:52:57.648Z,73.42
2023-04-21T04:55:26.110Z,71.45
2023-04-21T04:57:53.862Z,68.84
2023-04-21T05:00:22.082Z,66.89
2023-04-21T05:02:49.912Z,65.79
2023-04-21T05:05:17.763Z,65.41
2023-04-21T05:07:46.017Z,65.19
2023-04-21T05:10:13.879Z,65.36
2023-04-21T05:12:41.638Z,65.84
2023-04-21T05:15:09.816Z,65.38
2023-04-21T05:17:37.826Z,65.91
2023-04-21T05:20:07.066Z,67.00
2023-04-21T05:22:38.856Z,68.01
2023-04-21T05:25:07.521Z,67.85
2023-04-21T05:27:35.438Z,68.01
2023-04-21T05:30:03.400Z,68.36
2023-04-21T05:32:31.204Z,68.62
2023-04-21T05:35:00.323Z,68.05
2023-04-21T05:37:28.100Z,68.33
2023-04-21T05:39:55.777Z,68.15
2023-04-21T05:42:23.611Z,67.76
2023-04-21T05:44:51.427Z,68.22
2023-04-21T05:47:19.230Z,68.36
2023-04-21T05:49:50.497Z,68.32
2023-04-21T05:52:18.486Z,68.32
2023-04-21T05:54:46.188Z,67.73
2023-04-21T05:57:13.976Z,66.94
2023-04-21T05:59:41.711Z,66.41
2023-04-21T06:02:09.805Z,65.94
2023-04-21T06:04:37.790Z,65.63
2023-04-21T06:07:07.376Z,65.58
2023-04-21T06:09:36.362Z,64.10
2023-04-21T06:12:04.439Z,63.91
2023-04-21T06:14:32.664Z,63.50
2023-04-21T06:17:00.689Z,61.99
2023-04-21T06:19:28.455Z,62.22
2023-04-21T06:21:57.324Z,61.96
2023-04-21T06:24:25.908Z,61.63
2023-04-21T06:26:53.781Z,60.46
2023-04-21T06:29:21.538Z,60.57
2023-04-21T06:31:49.332Z,60.78
2023-04-21T06:34:17.385Z,60.24
2023-04-21T06:36:45.242Z,59.84
2023-04-21T06:39:13.110Z,58.60
2023-04-21T06:41:40.873Z,58.76
2023-04-21T06:44:08.610Z,58.43
2023-04-21T06:46:36.412Z,58.75
2023-04-21T06:49:04.382Z,59.42
2023-04-21T06:51:32.319Z,57.88
2023-04-21T06:54:01.136Z,57.96
2023-04-21T06:56:29.492Z,57.72
2023-04-21T06:58:57.227Z,57.37
2023-04-21T07:01:24.937Z,56.32
2023-04-21T07:03:53.234Z,56.50
2023-04-21T07:06:21.061Z,55.04
2023-04-21T07:08:48.807Z,55.95
2023-04-21T07:11:16.485Z,55.27
2023-04-21T07:13:44.360Z,52.95
2023-04-21T07:16:12.149Z,53.21
2023-04-21T07:18:40.728Z,53.59
2023-04-21T07:21:08.566Z,52.85
2023-04-21T07:23:36.260Z,52.46
2023-04-21T07:26:03.954Z,49.74
2023-04-21T07:28:31.798Z,49.77
2023-04-21T07:31:01.511Z,50.99
2023-04-21T07:33:30.892Z,52.48
2023-04-21T07:35:58.659Z,49.56
2023-04-21T07:38:26.904Z,48.96
2023-04-21T07:40:54.974Z,48.85
2023-04-21T07:43:22.735Z,50.59
2023-04-21T07:45:52.535Z,50.17
2023-04-21T07:48:20.430Z,50.58
2023-04-21T07:50:48.273Z,49.09
2023-04-21T07:53:16.092Z,50.39
2023-04-21T07:55:43.842Z,47.54
2023-04-21T07:58:11.573Z,45.06
2023-04-21T08:00:39.478Z,44.44
2023-04-21T08:03:07.367Z,45.80
2023-04-21T08:05:38.808Z,45.93
2023-04-21T08:08:08.868Z,44.37
2023-04-21T08:10:36.848Z,42.64
2023-04-21T08:13:06.654Z,42.41
2023-04-21T08:15:34.918Z,40.53
2023-04-21T08:18:02.949Z,41.67
2023-04-21T08:20:30.673Z,40.01
2023-04-21T08:22:58.454Z,37.49
2023-04-21T08:25:26.391Z,37.16
2023-04-21T08:27:54.150Z,37.29
2023-04-21T08:30:22.029Z,36.29
2023-04-21T08:32:49.801Z,36.30
2023-04-21T08:35:17.608Z,36.73
2023-04-21T08:37:45.869Z,36.25
2023-04-21T08:40:13.734Z,37.62
2023-04-21T08:42:42.467Z,35.32
2023-04-21T08:45:11.174Z,36.14
2023-04-21T08:47:41.779Z,34.40
2023-04-21T08:50:14.377Z,34.66
2023-04-21T08:52:42.513Z,32.99
2023-04-21T08:55:11.650Z,33.18
2023-04-21T08:57:39.285Z,33.15
2023-04-21T09:00:08.518Z,33.99
2023-04-21T09:03:00.631Z,34.25
2023-04-21T09:05:34.396Z,34.26
2023-04-21T09:08:12.434Z,32.59
2023-04-21T09:10:51.211Z,32.55
2023-04-21T09:13:20.951Z,31.45
2023-04-21T09:15:51.377Z,32.61
2023-04-21T09:18:22.343Z,33.73
2023-04-21T09:20:53.388Z,33.20
2023-04-21T09:23:21.350Z,32.49
2023-04-21T09:25:48.977Z,31.08
2023-04-21T09:28:16.654Z,31.73
2023-04-21T09:30:44.432Z,31.35
2023-04-21T09:33:27.870Z,31.21
2023-04-21T09:36:02.484Z,31.67
2023-04-21T09:38:30.468Z,31.61
2023-04-21T09:40:59.256Z,31.76
2023-04-21T09:43:27.036Z,32.67
2023-04-21T09:45:56.065Z,31.97
2023-04-21T09:48:25.999Z,31.62
2023-04-21T09:53:28.609Z,31.42
2023-04-21T09:55:58.705Z,30.65
2023-04-21T09:58:31.779Z,29.57
2023-04-21T10:00:59.868Z,31.64
2023-04-21T10:03:29.903Z,30.56
2023-04-21T10:05:58.008Z,30.38
2023-04-21T10:08:26.248Z,30.29
2023-04-21T10:10:54.588Z,29.83
2023-04-21T10:13:22.611Z,30.27
2023-04-21T10:16:01.807Z,29.89
2023-04-21T10:18:29.810Z,31.66
2023-04-21T10:21:08.738Z,31.19
2023-04-21T10:23:38.034Z,29.73
2023-04-21T10:26:19.077Z,30.85
2023-04-21T10:28:54.804Z,31.92
2023-04-21T10:31:27.276Z,32.06
2023-04-21T10:34:13.451Z,31.21
2023-04-21T10:36:44.253Z,30.11
2023-04-21T10:39:24.911Z,29.30
2023-04-21T10:41:56.165Z,29.60
2023-04-21T10:44:24.759Z,30.67
2023-04-21T10:46:53.826Z,31.14
2023-04-21T10:49:21.718Z,31.07
2023-04-21T10:52:05.439Z,30.70
2023-04-21T10:54:46.617Z,29.43
2023-04-21T10:57:20.187Z,29.06
2023-04-21T10:59:49.754Z,29.54
2023-04-21T11:02:19.278Z,29.57
2023-04-21T11:04:51.783Z,30.17
2023-04-21T11:07:24.306Z,30.25
2023-04-21T11:10:02.280Z,30.24
2023-04-21T11:12:36.901Z,30.46
2023-04-21T11:15:07.728Z,31.12
2023-04-21T11:17:36.241Z,32.52
2023-04-21T11:20:04.794Z,32.87
2023-04-21T11:22:33.752Z,31.66
2023-04-21T11:25:01.772Z,30.89
2023-04-21T11:27:30.858Z,32.26
2023-04-21T11:29:58.757Z,31.01
2023-04-21T11:32:26.786Z,31.61
2023-04-21T11:34:54.652Z,28.54
2023-04-21T11:37:26.202Z,29.18
2023-04-21T11:40:01.033Z,29.34
2023-04-21T11:42:29.219Z,29.22
2023-04-21T11:44:57.751Z,27.80
2023-04-21T11:47:28.843Z,27.65
2023-04-21T11:49:59.368Z,27.54
2023-04-21T11:52:29.478Z,27.73
2023-04-21T11:55:01.237Z,29.09
2023-04-21T11:57:31.099Z,28.18
2023-04-21T12:00:00.639Z,28.85
2023-04-21T12:02:30.507Z,27.65
2023-04-21T12:05:01.330Z,27.91
2023-04-21T12:07:31.417Z,27.10
2023-04-21T12:10:00.817Z,27.87
2023-04-21T12:12:28.862Z,27.22
2023-04-21T12:14:56.647Z,27.95
2023-04-21T12:17:24.471Z,27.88
2023-04-21T12:19:52.199Z,27.75
2023-04-21T12:22:20.179Z,27.28
2023-04-21T12:24:47.901Z,27.03
2023-04-21T12:27:15.771Z,27.49
2023-04-21T12:29:43.567Z,27.74
2023-04-21T12:32:11.394Z,27.87
2023-04-21T12:34:39.412Z,27.34
2023-04-21T12:37:07.658Z,26.55
2023-04-21T12:39:35.821Z,26.88
2023-04-21T12:42:03.652Z,26.57
2023-04-21T12:44:31.421Z,26.02
2023-04-21T12:46:59.316Z,26.20
2023-04-21T12:49:27.121Z,26.77
2023-04-21T12:51:54.840Z,25.44
2023-04-21T12:54:22.512Z,25.83
2023-04-21T12:56:50.364Z,26.59
2023-04-21T12:59:18.120Z,25.76
2023-04-21T13:01:45.975Z,26.28
2023-04-21T13:04:14.039Z,27.75
2023-04-21T13:06:42.195Z,26.99
2023-04-21T13:09:09.969Z,26.95
2023-04-21T13:11:37.867Z,27.49
2023-04-21T13:14:05.559Z,26.63
2023-04-21T13:16:33.419Z,27.85
2023-04-21T13:22:08.801Z,27.76
2023-04-21T13:24:36.542Z,26.88
2023-04-21T13:27:04.475Z,27.26
2023-04-21T13:29:34.576Z,26.61
2023-04-21T13:32:04.260Z,26.31
2023-04-21T13:34:33.815Z,26.97
2023-04-21T13:37:01.938Z,27.56
2023-04-21T13:39:30.943Z,27.71
2023-04-21T13:41:58.835Z,27.30
2023-04-21T13:44:27.382Z,27.16
2023-04-21T13:46:56.424Z,26.38
2023-04-21T13:49:24.145Z,26.58
2023-04-21T13:51:51.925Z,26.95
2023-04-21T13:54:20.287Z,25.92
2023-04-21T13:56:47.971Z,26.16
2023-04-21T13:59:16.763Z,26.69
2023-04-21T14:01:44.418Z,25.86
2023-04-21T14:04:12.235Z,26.07
2023-04-21T14:06:40.361Z,26.56
2023-04-21T14:09:09.635Z,25.49
2023-04-21T14:11:37.360Z,25.99
2023-04-21T14:14:09.652Z,25.71
2023-04-21T14:16:39.051Z,26.06
2023-04-21T14:19:07.021Z,25.82
2023-04-21T14:21:34.937Z,26.14
2023-04-21T14:24:02.695Z,26.41
2023-04-21T14:26:30.469Z,25.99
2023-04-21T14:29:00.083Z,26.05
2023-04-21T14:31:30.943Z,26.64
2023-04-21T14:33:58.864Z,26.43
2023-04-21T14:36:28.150Z,26.60
2023-04-21T14:38:56.226Z,26.09
2023-04-21T14:41:23.918Z,26.18
2023-04-21T14:43:53.961Z,26.37
2023-04-21T14:46:22.156Z,25.53
2023-04-21T14:48:49.953Z,26.14
2023-04-21T14:51:18.626Z,26.28
2023-04-21T14:53:47.033Z,25.68
2023-04-21T14:56:16.005Z,26.60
2023-04-21T14:58:44.090Z,25.64
2023-04-21T15:01:12.725Z,26.09
2023-04-21T15:03:40.798Z,25.38
2023-04-21T15:06:09.075Z,25.56
2023-04-21T15:08:36.869Z,25.57
2023-04-21T15:11:05.392Z,25.71
2023-04-21T15:13:33.596Z,26.02
2023-04-21T15:16:01.795Z,26.36
2023-04-21T15:18:29.695Z,26.72
2023-04-21T15:20:57.555Z,25.76
2023-04-21T15:23:25.283Z,26.50
2023-04-21T15:25:52.921Z,26.49
2023-04-21T15:28:20.583Z,27.02
2023-04-21T15:30:48.258Z,26.69
2023-04-21T15:33:17.567Z,26.74
2023-04-21T15:35:46.459Z,26.47
2023-04-21T15:38:14.427Z,26.18
2023-04-21T15:40:59.106Z,26.00
2023-04-21T15:43:29.368Z,26.42
2023-04-21T15:45:57.164Z,26.50
2023-04-21T15:48:25.073Z,26.36
2023-04-21T15:50:53.204Z,27.17
2023-04-21T15:53:21.143Z,26.77
2023-04-21T15:55:48.831Z,26.42
2023-04-21T15:58:17.259Z,26.61
2023-04-21T16:00:46.121Z,27.66
2023-04-21T16:03:14.089Z,27.61
2023-04-21T16:05:42.670Z,28.13
2023-04-21T16:08:10.712Z,27.26
2023-04-21T16:10:38.437Z,27.46
2023-04-21T16:13:06.603Z,27.77
2023-04-21T16:15:34.539Z,27.93
2023-04-21T16:18:06.322Z,28.59
2023-04-21T16:20:35.401Z,28.22
2023-04-21T16:23:04.840Z,27.94
2023-04-21T16:25:33.069Z,28.00
2023-04-21T16:28:01.088Z,28.07
2023-04-21T16:30:29.233Z,28.71
2023-04-21T16:32:56.979Z,28.52
2023-04-21T16:35:25.173Z,28.85
2023-04-21T16:37:52.970Z,29.23
2023-04-21T16:40:22.405Z,29.29
2023-04-21T16:42:50.295Z,29.32
2023-04-21T16:45:18.451Z,29.57
2023-04-21T16:47:46.417Z,29.58
2023-04-21T16:50:14.460Z,30.24
2023-04-21T16:52:42.317Z,29.92
2023-04-21T16:55:10.514Z,29.50
2023-04-21T16:57:38.612Z,30.60
2023-04-21T17:00:08.082Z,30.71
2023-04-21T17:02:36.145Z,30.17
2023-04-21T17:05:05.223Z,31.83
2023-04-21T17:07:34.386Z,32.58
2023-04-21T17:10:02.305Z,32.58
2023-04-21T17:12:30.126Z,32.80
2023-04-21T17:14:57.986Z,33.31
2023-04-21T17:17:26.054Z,34.02
2023-04-21T17:19:54.624Z,33.76
2023-04-21T17:22:22.469Z,34.04
2023-04-21T17:24:53.687Z,34.50
2023-04-21T17:27:22.110Z,34.35
2023-04-21T17:29:49.975Z,34.81
2023-04-21T17:32:18.062Z,35.20
2023-04-21T17:34:46.000Z,35.58
2023-04-21T17:37:14.154Z,36.11
2023-04-21T17:39:41.911Z,36.44
2023-04-21T17:42:09.565Z,37.02
2023-04-21T17:44:37.906Z,37.72
2023-04-21T17:47:08.466Z,38.34
2023-04-21T17:49:37.429Z,39.49
2023-04-21T17:52:05.960Z,40.20
2023-04-21T17:54:33.759Z,41.91
2023-04-21T17:57:02.124Z,41.23
2023-04-21T17:59:30.482Z,41.53
2023-04-21T18:01:59.116Z,42.67
2023-04-21T18:04:29.873Z,43.12
2023-04-21T18:06:59.009Z,43.88
2023-04-21T18:09:27.129Z,44.01
2023-04-21T18:11:54.879Z,44.80
2023-04-21T18:14:23.125Z,45.35
2023-04-21T18:16:50.999Z,45.57
2023-04-21T18:19:18.951Z,46.18
2023-04-21T18:21:46.724Z,46.37
2023-04-21T18:24:15.068Z,46.49
2023-04-21T18:26:43.610Z,47.08
2023-04-21T18:29:11.464Z,47.54
2023-04-21T18:31:39.512Z,48.10
2023-04-21T18:34:08.889Z,47.73
2023-04-21T18:36:38.506Z,48.44
2023-04-21T18:39:06.610Z,49.22
2023-04-21T18:41:34.532Z,49.68
2023-04-21T18:44:03.013Z,49.92
2023-04-21T18:46:30.925Z,49.93
2023-04-21T18:48:58.946Z,49.97
2023-04-21T18:51:27.905Z,51.75
2023-04-21T18:53:55.767Z,51.95
2023-04-21T18:56:23.506Z,52.64
2023-04-21T18:58:51.245Z,52.70
2023-04-21T19:01:19.253Z,52.65
2023-04-21T19:03:47.674Z,53.00
2023-04-21T19:06:16.236Z,53.39
2023-04-21T19:08:44.069Z,53.75
2023-04-21T19:11:14.363Z,53.66
2023-04-21T19:13:42.796Z,53.93
2023-04-21T19:16:12.298Z,54.49
2023-04-21T19:18:41.523Z,54.44
2023-04-21T19:21:13.915Z,55.12
2023-04-21T19:23:41.999Z,56.03
2023-04-21T19:26:12.115Z,55.86
2023-04-21T19:28:41.787Z,56.29
2023-04-21T19:31:10.252Z,56.08
2023-04-21T19:33:38.673Z,56.59
2023-04-21T19:36:07.222Z,56.77
2023-04-21T19:38:36.359Z,56.73
2023-04-21T19:41:04.225Z,57.43
2023-04-21T19:43:32.412Z,57.91
2023-04-21T19:46:01.256Z,58.48
2023-04-21T19:48:29.056Z,58.50
2023-04-21T19:50:56.906Z,58.41
2023-04-21T19:53:24.780Z,59.16
2023-04-21T19:55:52.973Z,58.50
2023-04-21T19:58:32.428Z,59.31
2023-04-21T20:01:07.314Z,59.83
2023-04-21T20:03:35.706Z,60.41
2023-04-21T20:06:05.004Z,60.43
2023-04-21T20:08:32.806Z,60.12
2023-04-21T20:11:01.061Z,60.58
2023-04-21T20:13:28.831Z,60.80
2023-04-21T20:15:57.427Z,61.08
2023-04-21T20:18:25.148Z,61.57
2023-04-21T20:20:53.011Z,62.20
2023-04-21T20:23:20.860Z,62.45
2023-04-21T20:25:48.650Z,62.43
2023-04-21T20:28:16.829Z,62.61
2023-04-21T20:30:44.550Z,62.90
2023-04-21T20:33:12.369Z,62.48
2023-04-21T20:35:44.167Z,62.73
2023-04-21T20:38:11.987Z,62.94
2023-04-21T20:40:39.934Z,63.55
2023-04-21T20:43:07.805Z,63.54
2023-04-21T20:45:35.953Z,63.89
2023-04-21T20:48:04.745Z,64.39
2023-04-21T20:50:32.625Z,64.76
2023-04-21T20:53:00.393Z,64.69
2023-04-21T20:55:28.254Z,65.13
2023-04-21T20:57:56.092Z,65.75
2023-04-21T21:00:23.960Z,65.30
2023-04-21T21:02:51.864Z,65.60
2023-04-21T21:05:19.817Z,65.31
2023-04-21T21:07:48.407Z,65.81
2023-04-21T21:10:18.316Z,65.86
2023-04-21T21:12:46.411Z,65.50
2023-04-21T21:15:14.255Z,65.19
2023-04-21T21:17:42.151Z,65.85
2023-04-21T21:20:10.797Z,65.42
2023-04-21T21:22:38.569Z,65.62
2023-04-21T21:25:06.668Z,64.80
2023-04-21T21:27:34.715Z,65.56
2023-04-21T21:30:02.648Z,66.10
2023-04-21T21:32:30.926Z,66.53
2023-04-21T21:34:58.829Z,66.88
2023-04-21T21:37:26.703Z,67.19
2023-04-21T21:39:55.551Z,66.96
2023-04-21T21:42:23.269Z,67.19
2023-04-21T21:44:51.403Z,67.62
2023-04-21T21:47:19.164Z,68.15
2023-04-21T21:49:46.820Z,67.29
2023-04-21T21:52:15.122Z,67.28
2023-04-21T21:54:43.074Z,67.83
2023-04-21T21:57:11.047Z,68.37
2023-04-21T21:59:39.264Z,68.51
2023-04-21T22:02:07.514Z,68.23
2023-04-21T22:04:35.990Z,68.31
2023-04-21T22:07:03.828Z,68.50
2023-04-21T22:09:31.620Z,68.63
2023-04-21T22:11:59.469Z,68.84
2023-04-21T22:14:28.121Z,69.22
2023-04-21T22:16:57.348Z,69.76
2023-04-21T22:19:25.622Z,70.25
2023-04-21T22:21:53.366Z,70.93
2023-04-21T22:24:21.113Z,71.26
2023-04-21T22:26:48.815Z,70.45
2023-04-21T22:29:16.667Z,69.94
2023-04-21T22:31:44.763Z,69.73
2023-04-21T22:34:15.212Z,70.27
2023-04-21T22:36:43.568Z,71.14
2023-04-21T22:39:11.728Z,71.50
2023-04-21T22:41:39.495Z,71.47
2023-04-21T22:44:07.252Z,71.39
2023-04-21T22:46:35.551Z,71.20
2023-04-21T22:49:03.972Z,71.51
2023-04-21T22:51:32.684Z,71.98
2023-04-21T22:54:00.746Z,72.16
2023-04-21T22:56:30.069Z,72.35
2023-04-21T22:58:57.875Z,72.62
2023-04-21T23:01:25.723Z,73.06
2023-04-21T23:03:53.817Z,73.14
2023-04-21T23:06:21.839Z,72.84
2023-04-21T23:08:49.811Z,73.79
2023-04-21T23:11:17.533Z,77.04
2023-04-21T23:13:45.436Z,75.94
2023-04-21T23:16:13.285Z,74.05
2023-04-21T23:18:41.569Z,74.22
2023-04-21T23:21:09.342Z,74.29
2023-04-21T23:23:37.429Z,73.94
2023-04-21T23:26:05.693Z,73.83
2023-04-21T23:28:33.657Z,73.79
2023-04-21T23:31:01.511Z,73.51
2023-04-21T23:33:29.224Z,73.61
2023-04-21T23:35:57.347Z,73.43
2023-04-21T23:38:25.064Z,74.30
2023-04-21T23:40:52.767Z,74.16
2023-04-21T23:43:20.533Z,74.60
2023-04-21T23:45:48.334Z,74.48
2023-04-21T23:48:16.071Z,74.09
2023-04-21T23:50:43.915Z,73.82
2023-04-21T23:53:11.590Z,73.91
2023-04-21T23:55:39.335Z,74.68
2023-04-21T23:58:07.723Z,74.65
